sensor_id;sensor_type;location;lat;lon;timestamp;P1;durP1;ratioP1;P2;durP2;ratioP2
51556;SDS011;38766;53.194;5.532;2023-03-08T00:01:02;3.63;;;0.70;;
51556;SDS011;38766;53.194;5.532;2023-03-08T00:03:33;2.53;;;0.43;;
51556;SDS011;38766;53.194;5.532;2023-03-08T00:06:02;2.47;;;0.45;;
51556;SDS011;38766;53.194;5.532;2023-03-08T00:08:29;3.58;;;0.40;;
51556;SDS011;38766;53.194;5.532;2023-03-08T00:10:54;2.17;;;0.60;;
51556;SDS011;38766;53.194;5.532;2023-03-08T00:13:20;2.50;;;0.60;;
51556;SDS011;38766;53.194;5.532;2023-03-08T00:15:45;3.60;;;0.80;;
51556;SDS011;38766;53.194;5.532;2023-03-08T00:18:11;3.50;;;0.63;;
51556;SDS011;38766;53.194;5.532;2023-03-08T00:20:37;1.90;;;0.50;;
51556;SDS011;38766;53.194;5.532;2023-03-08T00:23:02;1.38;;;0.40;;
51556;SDS011;38766;53.194;5.532;2023-03-08T00:25:28;4.53;;;0.82;;
51556;SDS011;38766;53.194;5.532;2023-03-08T00:27:54;4.22;;;0.75;;
51556;SDS011;38766;53.194;5.532;2023-03-08T00:30:19;2.50;;;0.60;;
51556;SDS011;38766;53.194;5.532;2023-03-08T00:32:45;1.58;;;0.38;;
51556;SDS011;38766;53.194;5.532;2023-03-08T00:35:10;2.95;;;0.60;;
51556;SDS011;38766;53.194;5.532;2023-03-08T00:37:36;3.42;;;0.60;;
51556;SDS011;38766;53.194;5.532;2023-03-08T00:40:02;4.68;;;0.60;;
51556;SDS011;38766;53.194;5.532;2023-03-08T00:42:29;1.08;;;0.32;;
51556;SDS011;38766;53.194;5.532;2023-03-08T00:44:55;2.13;;;0.65;;
51556;SDS011;38766;53.194;5.532;2023-03-08T00:47:20;2.75;;;0.50;;
51556;SDS011;38766;53.194;5.532;2023-03-08T00:49:46;3.60;;;0.60;;
51556;SDS011;38766;53.194;5.532;2023-03-08T00:52:15;5.07;;;0.55;;
51556;SDS011;38766;53.194;5.532;2023-03-08T00:54:40;4.47;;;0.85;;
51556;SDS011;38766;53.194;5.532;2023-03-08T00:57:06;4.90;;;0.70;;
51556;SDS011;38766;53.194;5.532;2023-03-08T00:59:31;3.85;;;0.80;;
51556;SDS011;38766;53.194;5.532;2023-03-08T01:01:57;1.77;;;0.60;;
51556;SDS011;38766;53.194;5.532;2023-03-08T01:04:24;4.43;;;0.88;;
51556;SDS011;38766;53.194;5.532;2023-03-08T01:06:50;0.70;;;0.50;;
51556;SDS011;38766;53.194;5.532;2023-03-08T01:09:16;2.53;;;0.95;;
51556;SDS011;38766;53.194;5.532;2023-03-08T01:11:41;3.47;;;0.60;;
51556;SDS011;38766;53.194;5.532;2023-03-08T01:14:08;4.57;;;0.85;;
51556;SDS011;38766;53.194;5.532;2023-03-08T01:16:34;2.00;;;0.70;;
51556;SDS011;38766;53.194;5.532;2023-03-08T01:19:00;2.17;;;0.63;;
51556;SDS011;38766;53.194;5.532;2023-03-08T01:21:27;1.25;;;0.40;;
51556;SDS011;38766;53.194;5.532;2023-03-08T01:23:53;2.42;;;0.68;;
51556;SDS011;38766;53.194;5.532;2023-03-08T01:26:20;2.00;;;0.50;;
51556;SDS011;38766;53.194;5.532;2023-03-08T01:28:48;4.43;;;0.60;;
51556;SDS011;38766;53.194;5.532;2023-03-08T01:31:15;4.25;;;0.40;;
51556;SDS011;38766;53.194;5.532;2023-03-08T01:33:43;1.85;;;0.47;;
51556;SDS011;38766;53.194;5.532;2023-03-08T01:36:10;1.30;;;0.40;;
51556;SDS011;38766;53.194;5.532;2023-03-08T01:38:39;1.63;;;0.40;;
51556;SDS011;38766;53.194;5.532;2023-03-08T01:41:06;3.40;;;0.60;;
51556;SDS011;38766;53.194;5.532;2023-03-08T01:43:33;2.28;;;0.40;;
51556;SDS011;38766;53.194;5.532;2023-03-08T01:48:37;1.75;;;0.50;;
51556;SDS011;38766;53.194;5.532;2023-03-08T01:51:07;1.60;;;0.35;;
51556;SDS011;38766;53.194;5.532;2023-03-08T01:53:36;0.65;;;0.40;;
51556;SDS011;38766;53.194;5.532;2023-03-08T01:56:04;3.33;;;0.50;;
51556;SDS011;38766;53.194;5.532;2023-03-08T01:58:33;0.98;;;0.30;;
51556;SDS011;38766;53.194;5.532;2023-03-08T02:00:59;0.93;;;0.30;;
51556;SDS011;38766;53.194;5.532;2023-03-08T02:03:24;0.75;;;0.55;;
51556;SDS011;38766;53.194;5.532;2023-03-08T02:05:50;0.20;;;0.20;;
51556;SDS011;38766;53.194;5.532;2023-03-08T02:08:16;2.17;;;0.70;;
51556;SDS011;38766;53.194;5.532;2023-03-08T02:10:41;0.90;;;0.40;;
51556;SDS011;38766;53.194;5.532;2023-03-08T02:13:07;2.70;;;0.35;;
51556;SDS011;38766;53.194;5.532;2023-03-08T02:15:35;1.88;;;0.50;;
51556;SDS011;38766;53.194;5.532;2023-03-08T02:18:01;1.35;;;0.45;;
51556;SDS011;38766;53.194;5.532;2023-03-08T02:20:27;0.88;;;0.25;;
51556;SDS011;38766;53.194;5.532;2023-03-08T02:23:20;0.55;;;0.43;;
51556;SDS011;38766;53.194;5.532;2023-03-08T02:25:53;0.70;;;0.30;;
51556;SDS011;38766;53.194;5.532;2023-03-08T02:28:22;0.47;;;0.47;;
51556;SDS011;38766;53.194;5.532;2023-03-08T02:30:49;2.60;;;0.50;;
51556;SDS011;38766;53.194;5.532;2023-03-08T02:33:16;0.70;;;0.40;;
51556;SDS011;38766;53.194;5.532;2023-03-08T02:35:42;1.13;;;0.40;;
51556;SDS011;38766;53.194;5.532;2023-03-08T02:38:13;0.38;;;0.30;;
51556;SDS011;38766;53.194;5.532;2023-03-08T02:40:40;2.20;;;0.40;;
51556;SDS011;38766;53.194;5.532;2023-03-08T02:43:06;1.65;;;0.40;;
51556;SDS011;38766;53.194;5.532;2023-03-08T02:45:32;2.47;;;0.50;;
51556;SDS011;38766;53.194;5.532;2023-03-08T02:47:59;3.60;;;0.55;;
51556;SDS011;38766;53.194;5.532;2023-03-08T02:50:25;1.00;;;0.22;;
51556;SDS011;38766;53.194;5.532;2023-03-08T02:52:51;0.90;;;0.63;;
51556;SDS011;38766;53.194;5.532;2023-03-08T02:55:17;1.02;;;0.30;;
51556;SDS011;38766;53.194;5.532;2023-03-08T02:57:42;2.75;;;0.50;;
51556;SDS011;38766;53.194;5.532;2023-03-08T03:00:08;0.43;;;0.40;;
51556;SDS011;38766;53.194;5.532;2023-03-08T03:02:34;8.48;;;0.65;;
51556;SDS011;38766;53.194;5.532;2023-03-08T03:05:04;0.30;;;0.30;;
51556;SDS011;38766;53.194;5.532;2023-03-08T03:07:34;1.27;;;0.40;;
51556;SDS011;38766;53.194;5.532;2023-03-08T03:10:01;1.75;;;0.40;;
51556;SDS011;38766;53.194;5.532;2023-03-08T03:12:28;1.55;;;0.52;;
51556;SDS011;38766;53.194;5.532;2023-03-08T03:14:54;2.35;;;0.40;;
51556;SDS011;38766;53.194;5.532;2023-03-08T03:17:20;2.45;;;0.50;;
51556;SDS011;38766;53.194;5.532;2023-03-08T03:19:46;2.00;;;0.50;;
51556;SDS011;38766;53.194;5.532;2023-03-08T03:22:11;1.08;;;0.30;;
51556;SDS011;38766;53.194;5.532;2023-03-08T03:24:37;0.40;;;0.40;;
51556;SDS011;38766;53.194;5.532;2023-03-08T03:27:03;2.08;;;0.52;;
51556;SDS011;38766;53.194;5.532;2023-03-08T03:29:28;1.55;;;0.47;;
51556;SDS011;38766;53.194;5.532;2023-03-08T03:31:54;0.80;;;0.50;;
51556;SDS011;38766;53.194;5.532;2023-03-08T03:34:20;0.30;;;0.30;;
51556;SDS011;38766;53.194;5.532;2023-03-08T03:36:46;0.50;;;0.40;;
51556;SDS011;38766;53.194;5.532;2023-03-08T03:39:14;0.82;;;0.75;;
51556;SDS011;38766;53.194;5.532;2023-03-08T03:41:40;1.40;;;0.40;;
51556;SDS011;38766;53.194;5.532;2023-03-08T03:44:05;0.80;;;0.40;;
51556;SDS011;38766;53.194;5.532;2023-03-08T03:46:31;1.52;;;0.63;;
51556;SDS011;38766;53.194;5.532;2023-03-08T03:48:57;2.78;;;0.47;;
51556;SDS011;38766;53.194;5.532;2023-03-08T03:51:22;0.43;;;0.40;;
51556;SDS011;38766;53.194;5.532;2023-03-08T03:53:48;1.27;;;0.70;;
51556;SDS011;38766;53.194;5.532;2023-03-08T03:56:18;0.40;;;0.40;;
51556;SDS011;38766;53.194;5.532;2023-03-08T03:58:48;1.33;;;0.90;;
51556;SDS011;38766;53.194;5.532;2023-03-08T04:01:15;1.85;;;0.55;;
51556;SDS011;38766;53.194;5.532;2023-03-08T04:03:50;1.48;;;0.70;;
51556;SDS011;38766;53.194;5.532;2023-03-08T04:06:16;3.78;;;1.15;;
51556;SDS011;38766;53.194;5.532;2023-03-08T04:08:47;3.65;;;0.65;;
51556;SDS011;38766;53.194;5.532;2023-03-08T04:11:16;2.35;;;0.70;;
51556;SDS011;38766;53.194;5.532;2023-03-08T04:13:44;2.08;;;0.75;;
51556;SDS011;38766;53.194;5.532;2023-03-08T04:18:37;4.13;;;0.90;;
51556;SDS011;38766;53.194;5.532;2023-03-08T04:21:03;3.50;;;0.85;;
51556;SDS011;38766;53.194;5.532;2023-03-08T04:23:29;1.70;;;0.57;;
51556;SDS011;38766;53.194;5.532;2023-03-08T04:25:55;2.40;;;0.60;;
51556;SDS011;38766;53.194;5.532;2023-03-08T04:28:21;4.10;;;1.10;;
51556;SDS011;38766;53.194;5.532;2023-03-08T04:30:46;4.72;;;0.82;;
51556;SDS011;38766;53.194;5.532;2023-03-08T04:33:12;1.73;;;0.70;;
51556;SDS011;38766;53.194;5.532;2023-03-08T04:35:37;2.45;;;1.15;;
51556;SDS011;38766;53.194;5.532;2023-03-08T04:38:03;2.80;;;0.70;;
51556;SDS011;38766;53.194;5.532;2023-03-08T04:40:29;0.85;;;0.75;;
51556;SDS011;38766;53.194;5.532;2023-03-08T04:42:55;1.60;;;0.68;;
51556;SDS011;38766;53.194;5.532;2023-03-08T04:45:21;0.75;;;0.52;;
51556;SDS011;38766;53.194;5.532;2023-03-08T04:47:46;1.52;;;0.68;;
51556;SDS011;38766;53.194;5.532;2023-03-08T04:50:12;0.75;;;0.60;;
51556;SDS011;38766;53.194;5.532;2023-03-08T04:52:38;0.75;;;0.50;;
51556;SDS011;38766;53.194;5.532;2023-03-08T04:55:04;0.70;;;0.63;;
51556;SDS011;38766;53.194;5.532;2023-03-08T04:57:30;1.25;;;0.55;;
51556;SDS011;38766;53.194;5.532;2023-03-08T04:59:56;1.83;;;0.70;;
51556;SDS011;38766;53.194;5.532;2023-03-08T05:02:21;1.05;;;0.70;;
51556;SDS011;38766;53.194;5.532;2023-03-08T05:04:48;1.30;;;0.90;;
51556;SDS011;38766;53.194;5.532;2023-03-08T05:07:14;1.50;;;1.20;;
51556;SDS011;38766;53.194;5.532;2023-03-08T05:09:39;7.40;;;2.25;;
51556;SDS011;38766;53.194;5.532;2023-03-08T05:12:05;8.40;;;2.95;;
51556;SDS011;38766;53.194;5.532;2023-03-08T05:14:31;7.20;;;3.03;;
51556;SDS011;38766;53.194;5.532;2023-03-08T05:16:57;2.72;;;1.65;;
51556;SDS011;38766;53.194;5.532;2023-03-08T05:19:23;5.00;;;1.80;;
51556;SDS011;38766;53.194;5.532;2023-03-08T05:21:49;2.28;;;1.40;;
51556;SDS011;38766;53.194;5.532;2023-03-08T05:24:15;4.15;;;1.40;;
51556;SDS011;38766;53.194;5.532;2023-03-08T05:26:41;2.92;;;0.90;;
51556;SDS011;38766;53.194;5.532;2023-03-08T05:29:06;3.58;;;1.02;;
51556;SDS011;38766;53.194;5.532;2023-03-08T05:31:32;1.65;;;0.73;;
51556;SDS011;38766;53.194;5.532;2023-03-08T05:33:58;1.42;;;1.00;;
51556;SDS011;38766;53.194;5.532;2023-03-08T05:36:23;2.85;;;1.23;;
51556;SDS011;38766;53.194;5.532;2023-03-08T05:38:52;4.38;;;1.20;;
51556;SDS011;38766;53.194;5.532;2023-03-08T05:41:22;3.03;;;1.30;;
51556;SDS011;38766;53.194;5.532;2023-03-08T05:43:50;4.35;;;1.30;;
51556;SDS011;38766;53.194;5.532;2023-03-08T05:46:17;5.68;;;1.60;;
51556;SDS011;38766;53.194;5.532;2023-03-08T05:48:43;2.47;;;1.25;;
51556;SDS011;38766;53.194;5.532;2023-03-08T05:51:10;2.78;;;1.52;;
51556;SDS011;38766;53.194;5.532;2023-03-08T05:53:37;2.20;;;1.30;;
51556;SDS011;38766;53.194;5.532;2023-03-08T05:56:07;2.88;;;1.40;;
51556;SDS011;38766;53.194;5.532;2023-03-08T05:58:33;2.47;;;1.42;;
51556;SDS011;38766;53.194;5.532;2023-03-08T06:01:06;2.50;;;1.60;;
51556;SDS011;38766;53.194;5.532;2023-03-08T06:03:36;4.93;;;2.30;;
51556;SDS011;38766;53.194;5.532;2023-03-08T06:06:02;6.30;;;1.73;;
51556;SDS011;38766;53.194;5.532;2023-03-08T06:08:28;2.50;;;1.70;;
51556;SDS011;38766;53.194;5.532;2023-03-08T06:10:53;2.83;;;1.38;;
51556;SDS011;38766;53.194;5.532;2023-03-08T06:13:19;5.93;;;1.77;;
51556;SDS011;38766;53.194;5.532;2023-03-08T06:15:44;3.53;;;1.50;;
51556;SDS011;38766;53.194;5.532;2023-03-08T06:18:10;3.28;;;1.42;;
51556;SDS011;38766;53.194;5.532;2023-03-08T06:20:36;6.05;;;1.70;;
51556;SDS011;38766;53.194;5.532;2023-03-08T06:23:01;3.90;;;1.58;;
51556;SDS011;38766;53.194;5.532;2023-03-08T06:25:27;5.97;;;1.23;;
51556;SDS011;38766;53.194;5.532;2023-03-08T06:27:52;9.70;;;1.52;;
51556;SDS011;38766;53.194;5.532;2023-03-08T06:30:18;5.65;;;1.20;;
51556;SDS011;38766;53.194;5.532;2023-03-08T06:32:44;2.88;;;1.20;;
51556;SDS011;38766;53.194;5.532;2023-03-08T06:35:10;5.55;;;1.20;;
51556;SDS011;38766;53.194;5.532;2023-03-08T06:37:36;3.75;;;1.30;;
51556;SDS011;38766;53.194;5.532;2023-03-08T06:40:02;3.17;;;1.20;;
51556;SDS011;38766;53.194;5.532;2023-03-08T06:42:29;2.97;;;1.55;;
51556;SDS011;38766;53.194;5.532;2023-03-08T06:44:55;1.65;;;1.08;;
51556;SDS011;38766;53.194;5.532;2023-03-08T06:47:21;10.43;;;1.50;;
51556;SDS011;38766;53.194;5.532;2023-03-08T06:49:47;2.20;;;1.10;;
51556;SDS011;38766;53.194;5.532;2023-03-08T06:52:12;4.18;;;1.38;;
51556;SDS011;38766;53.194;5.532;2023-03-08T06:54:38;4.28;;;1.27;;
51556;SDS011;38766;53.194;5.532;2023-03-08T06:57:03;5.60;;;1.85;;
51556;SDS011;38766;53.194;5.532;2023-03-08T06:59:29;8.30;;;1.90;;
51556;SDS011;38766;53.194;5.532;2023-03-08T07:01:55;7.78;;;1.98;;
51556;SDS011;38766;53.194;5.532;2023-03-08T07:04:20;8.07;;;2.60;;
51556;SDS011;38766;53.194;5.532;2023-03-08T07:06:46;6.00;;;2.45;;
51556;SDS011;38766;53.194;5.532;2023-03-08T07:09:11;6.35;;;2.90;;
51556;SDS011;38766;53.194;5.532;2023-03-08T07:11:38;5.28;;;2.72;;
51556;SDS011;38766;53.194;5.532;2023-03-08T07:14:03;8.43;;;2.38;;
51556;SDS011;38766;53.194;5.532;2023-03-08T07:16:29;4.85;;;2.15;;
51556;SDS011;38766;53.194;5.532;2023-03-08T07:18:55;5.63;;;2.33;;
51556;SDS011;38766;53.194;5.532;2023-03-08T07:21:21;10.00;;;2.80;;
51556;SDS011;38766;53.194;5.532;2023-03-08T07:23:49;6.65;;;2.60;;
51556;SDS011;38766;53.194;5.532;2023-03-08T07:26:16;8.25;;;3.50;;
51556;SDS011;38766;53.194;5.532;2023-03-08T07:28:41;8.35;;;3.90;;
51556;SDS011;38766;53.194;5.532;2023-03-08T07:31:09;9.15;;;3.67;;
51556;SDS011;38766;53.194;5.532;2023-03-08T07:33:35;5.57;;;2.58;;
51556;SDS011;38766;53.194;5.532;2023-03-08T07:36:01;5.00;;;2.20;;
51556;SDS011;38766;53.194;5.532;2023-03-08T07:38:27;2.25;;;1.67;;
51556;SDS011;38766;53.194;5.532;2023-03-08T07:40:53;5.88;;;2.75;;
51556;SDS011;38766;53.194;5.532;2023-03-08T07:43:20;36.25;;;12.35;;
51556;SDS011;38766;53.194;5.532;2023-03-08T07:45:46;76.15;;;19.95;;
51556;SDS011;38766;53.194;5.532;2023-03-08T07:48:12;33.65;;;12.55;;
51556;SDS011;38766;53.194;5.532;2023-03-08T07:50:37;19.80;;;10.52;;
51556;SDS011;38766;53.194;5.532;2023-03-08T07:53:03;12.43;;;5.82;;
51556;SDS011;38766;53.194;5.532;2023-03-08T07:55:28;10.15;;;4.93;;
51556;SDS011;38766;53.194;5.532;2023-03-08T07:57:54;7.63;;;3.13;;
51556;SDS011;38766;53.194;5.532;2023-03-08T08:00:20;6.63;;;2.88;;
51556;SDS011;38766;53.194;5.532;2023-03-08T08:02:46;5.90;;;2.50;;
51556;SDS011;38766;53.194;5.532;2023-03-08T08:05:12;3.60;;;2.10;;
51556;SDS011;38766;53.194;5.532;2023-03-08T08:07:37;8.48;;;3.83;;
51556;SDS011;38766;53.194;5.532;2023-03-08T08:10:04;6.63;;;3.13;;
51556;SDS011;38766;53.194;5.532;2023-03-08T08:12:30;4.00;;;2.70;;
51556;SDS011;38766;53.194;5.532;2023-03-08T08:14:56;4.10;;;1.90;;
51556;SDS011;38766;53.194;5.532;2023-03-08T08:17:23;6.00;;;2.30;;
51556;SDS011;38766;53.194;5.532;2023-03-08T08:19:49;7.68;;;3.13;;
51556;SDS011;38766;53.194;5.532;2023-03-08T08:22:15;9.27;;;3.50;;
51556;SDS011;38766;53.194;5.532;2023-03-08T08:24:40;6.13;;;3.13;;
51556;SDS011;38766;53.194;5.532;2023-03-08T08:27:06;5.55;;;2.90;;
51556;SDS011;38766;53.194;5.532;2023-03-08T08:29:32;5.20;;;2.67;;
51556;SDS011;38766;53.194;5.532;2023-03-08T08:31:57;6.72;;;3.47;;
51556;SDS011;38766;53.194;5.532;2023-03-08T08:34:23;4.20;;;2.10;;
51556;SDS011;38766;53.194;5.532;2023-03-08T08:36:49;7.28;;;1.92;;
51556;SDS011;38766;53.194;5.532;2023-03-08T08:39:14;2.40;;;1.60;;
51556;SDS011;38766;53.194;5.532;2023-03-08T08:41:40;5.25;;;2.30;;
51556;SDS011;38766;53.194;5.532;2023-03-08T08:44:06;11.38;;;2.60;;
51556;SDS011;38766;53.194;5.532;2023-03-08T08:46:32;4.93;;;2.30;;
51556;SDS011;38766;53.194;5.532;2023-03-08T08:48:59;6.65;;;2.47;;
51556;SDS011;38766;53.194;5.532;2023-03-08T08:51:25;8.45;;;2.78;;
51556;SDS011;38766;53.194;5.532;2023-03-08T08:53:52;5.40;;;2.20;;
51556;SDS011;38766;53.194;5.532;2023-03-08T08:56:22;5.93;;;2.45;;
51556;SDS011;38766;53.194;5.532;2023-03-08T08:58:49;4.15;;;1.90;;
51556;SDS011;38766;53.194;5.532;2023-03-08T09:03:43;5.53;;;2.47;;
51556;SDS011;38766;53.194;5.532;2023-03-08T09:06:09;3.55;;;1.80;;
51556;SDS011;38766;53.194;5.532;2023-03-08T09:08:35;4.85;;;1.90;;
51556;SDS011;38766;53.194;5.532;2023-03-08T09:11:05;5.78;;;1.45;;
51556;SDS011;38766;53.194;5.532;2023-03-08T09:13:32;3.88;;;1.90;;
51556;SDS011;38766;53.194;5.532;2023-03-08T09:15:58;5.80;;;1.70;;
51556;SDS011;38766;53.194;5.532;2023-03-08T09:18:24;4.85;;;1.77;;
51556;SDS011;38766;53.194;5.532;2023-03-08T09:20:50;7.10;;;1.63;;
51556;SDS011;38766;53.194;5.532;2023-03-08T09:23:16;3.17;;;1.55;;
51556;SDS011;38766;53.194;5.532;2023-03-08T09:25:41;1.30;;;1.00;;
51556;SDS011;38766;53.194;5.532;2023-03-08T09:28:07;6.38;;;1.15;;
51556;SDS011;38766;53.194;5.532;2023-03-08T09:30:34;6.20;;;1.63;;
51556;SDS011;38766;53.194;5.532;2023-03-08T09:33:00;2.83;;;1.20;;
51556;SDS011;38766;53.194;5.532;2023-03-08T09:35:27;3.65;;;1.40;;
51556;SDS011;38766;53.194;5.532;2023-03-08T09:37:54;5.22;;;1.45;;
51556;SDS011;38766;53.194;5.532;2023-03-08T09:40:21;8.45;;;1.73;;
51556;SDS011;38766;53.194;5.532;2023-03-08T09:42:49;4.68;;;1.30;;
51556;SDS011;38766;53.194;5.532;2023-03-08T09:48:26;4.80;;;1.52;;
51556;SDS011;38766;53.194;5.532;2023-03-08T09:50:50;4.80;;;1.63;;
51556;SDS011;38766;53.194;5.532;2023-03-08T09:53:20;3.75;;;1.45;;
51556;SDS011;38766;53.194;5.532;2023-03-08T09:59:01;5.10;;;1.40;;
51556;SDS011;38766;53.194;5.532;2023-03-08T10:01:44;4.40;;;1.25;;
51556;SDS011;38766;53.194;5.532;2023-03-08T10:04:24;1.92;;;1.50;;
51556;SDS011;38766;53.194;5.532;2023-03-08T10:09:49;5.32;;;1.40;;
51556;SDS011;38766;53.194;5.532;2023-03-08T10:15:02;6.75;;;1.73;;
51556;SDS011;38766;53.194;5.532;2023-03-08T10:18:09;4.63;;;1.27;;
51556;SDS011;38766;53.194;5.532;2023-03-08T10:20:39;1.90;;;1.15;;
51556;SDS011;38766;53.194;5.532;2023-03-08T10:23:14;1.73;;;1.10;;
51556;SDS011;38766;53.194;5.532;2023-03-08T10:25:45;3.70;;;1.27;;
51556;SDS011;38766;53.194;5.532;2023-03-08T10:28:16;6.40;;;1.52;;
51556;SDS011;38766;53.194;5.532;2023-03-08T10:30:47;3.67;;;1.40;;
51556;SDS011;38766;53.194;5.532;2023-03-08T10:33:15;4.35;;;1.40;;
51556;SDS011;38766;53.194;5.532;2023-03-08T10:38:56;3.65;;;1.50;;
51556;SDS011;38766;53.194;5.532;2023-03-08T10:41:24;4.10;;;1.13;;
51556;SDS011;38766;53.194;5.532;2023-03-08T10:43:51;5.45;;;1.50;;
51556;SDS011;38766;53.194;5.532;2023-03-08T10:46:19;4.05;;;1.70;;
51556;SDS011;38766;53.194;5.532;2023-03-08T10:48:46;1.90;;;1.40;;
51556;SDS011;38766;53.194;5.532;2023-03-08T10:51:20;4.63;;;1.48;;
51556;SDS011;38766;53.194;5.532;2023-03-08T10:53:57;8.00;;;1.60;;
51556;SDS011;38766;53.194;5.532;2023-03-08T10:56:39;4.03;;;1.42;;
51556;SDS011;38766;53.194;5.532;2023-03-08T10:59:19;4.13;;;1.70;;
51556;SDS011;38766;53.194;5.532;2023-03-08T11:01:52;1.90;;;1.20;;
51556;SDS011;38766;53.194;5.532;2023-03-08T11:04:20;4.22;;;1.83;;
51556;SDS011;38766;53.194;5.532;2023-03-08T11:06:47;5.07;;;1.25;;
51556;SDS011;38766;53.194;5.532;2023-03-08T11:09:21;2.83;;;1.42;;
51556;SDS011;38766;53.194;5.532;2023-03-08T11:11:47;6.07;;;2.05;;
51556;SDS011;38766;53.194;5.532;2023-03-08T11:14:12;8.75;;;1.90;;
51556;SDS011;38766;53.194;5.532;2023-03-08T11:19:46;3.05;;;1.20;;
51556;SDS011;38766;53.194;5.532;2023-03-08T11:22:44;3.92;;;1.63;;
51556;SDS011;38766;53.194;5.532;2023-03-08T11:28:06;6.65;;;1.58;;
51556;SDS011;38766;53.194;5.532;2023-03-08T11:30:45;2.72;;;1.23;;
51556;SDS011;38766;53.194;5.532;2023-03-08T11:36:08;5.55;;;1.70;;
51556;SDS011;38766;53.194;5.532;2023-03-08T11:38:47;5.22;;;1.80;;
51556;SDS011;38766;53.194;5.532;2023-03-08T11:52:37;3.40;;;1.45;;
51556;SDS011;38766;53.194;5.532;2023-03-08T11:57:51;4.45;;;1.92;;
51556;SDS011;38766;53.194;5.532;2023-03-08T12:00:31;4.22;;;1.58;;
51556;SDS011;38766;53.194;5.532;2023-03-08T12:03:01;2.10;;;1.40;;
51556;SDS011;38766;53.194;5.532;2023-03-08T12:05:51;3.80;;;1.80;;
51556;SDS011;38766;53.194;5.532;2023-03-08T12:11:07;3.97;;;1.50;;
51556;SDS011;38766;53.194;5.532;2023-03-08T12:13:47;1.70;;;1.40;;
51556;SDS011;38766;53.194;5.532;2023-03-08T12:16:18;1.88;;;1.35;;
51556;SDS011;38766;53.194;5.532;2023-03-08T12:21:45;4.68;;;1.08;;
51556;SDS011;38766;53.194;5.532;2023-03-08T12:32:35;2.13;;;0.80;;
51556;SDS011;38766;53.194;5.532;2023-03-08T12:40:43;1.80;;;1.40;;
51556;SDS011;38766;53.194;5.532;2023-03-08T12:43:13;1.95;;;1.05;;
51556;SDS011;38766;53.194;5.532;2023-03-08T12:46:07;3.30;;;1.05;;
51556;SDS011;38766;53.194;5.532;2023-03-08T12:58:33;3.63;;;1.25;;
51556;SDS011;38766;53.194;5.532;2023-03-08T13:01:04;2.38;;;1.33;;
51556;SDS011;38766;53.194;5.532;2023-03-08T13:03:53;1.98;;;1.10;;
51556;SDS011;38766;53.194;5.532;2023-03-08T13:08:49;3.50;;;1.40;;
51556;SDS011;38766;53.194;5.532;2023-03-08T13:11:36;2.05;;;1.30;;
51556;SDS011;38766;53.194;5.532;2023-03-08T13:14:21;6.53;;;1.58;;
51556;SDS011;38766;53.194;5.532;2023-03-08T13:19:51;3.22;;;1.70;;
51556;SDS011;38766;53.194;5.532;2023-03-08T13:22:28;7.85;;;1.70;;
51556;SDS011;38766;53.194;5.532;2023-03-08T13:25:04;2.67;;;1.20;;
51556;SDS011;38766;53.194;5.532;2023-03-08T13:27:49;3.75;;;1.30;;
51556;SDS011;38766;53.194;5.532;2023-03-08T13:30:24;1.45;;;0.90;;
51556;SDS011;38766;53.194;5.532;2023-03-08T13:32:54;5.28;;;1.25;;
51556;SDS011;38766;53.194;5.532;2023-03-08T13:35:20;2.03;;;1.13;;
51556;SDS011;38766;53.194;5.532;2023-03-08T13:37:56;2.38;;;1.23;;
51556;SDS011;38766;53.194;5.532;2023-03-08T13:40:26;4.03;;;1.08;;
51556;SDS011;38766;53.194;5.532;2023-03-08T13:42:57;3.22;;;1.25;;
51556;SDS011;38766;53.194;5.532;2023-03-08T13:45:33;4.40;;;1.80;;
51556;SDS011;38766;53.194;5.532;2023-03-08T13:47:59;6.15;;;1.80;;
51556;SDS011;38766;53.194;5.532;2023-03-08T13:50:34;9.32;;;3.03;;
51556;SDS011;38766;53.194;5.532;2023-03-08T13:53:06;9.68;;;3.58;;
51556;SDS011;38766;53.194;5.532;2023-03-08T13:55:41;5.00;;;2.65;;
51556;SDS011;38766;53.194;5.532;2023-03-08T13:58:52;5.47;;;1.48;;
51556;SDS011;38766;53.194;5.532;2023-03-08T14:01:10;5.55;;;1.70;;
51556;SDS011;38766;53.194;5.532;2023-03-08T14:03:39;3.80;;;1.52;;
51556;SDS011;38766;53.194;5.532;2023-03-08T14:08:55;8.10;;;2.20;;
51556;SDS011;38766;53.194;5.532;2023-03-08T14:11:33;4.82;;;1.50;;
51556;SDS011;38766;53.194;5.532;2023-03-08T14:14:02;2.38;;;1.38;;
51556;SDS011;38766;53.194;5.532;2023-03-08T14:16:32;2.78;;;1.55;;
51556;SDS011;38766;53.194;5.532;2023-03-08T14:21:50;3.67;;;1.40;;
51556;SDS011;38766;53.194;5.532;2023-03-08T14:24:19;3.97;;;1.98;;
51556;SDS011;38766;53.194;5.532;2023-03-08T14:26:56;3.75;;;1.58;;
51556;SDS011;38766;53.194;5.532;2023-03-08T14:29:32;3.60;;;1.70;;
51556;SDS011;38766;53.194;5.532;2023-03-08T14:32:03;8.48;;;2.20;;
51556;SDS011;38766;53.194;5.532;2023-03-08T14:37:23;2.65;;;1.60;;
51556;SDS011;38766;53.194;5.532;2023-03-08T14:39:53;3.53;;;1.30;;
51556;SDS011;38766;53.194;5.532;2023-03-08T14:45:26;3.80;;;1.58;;
51556;SDS011;38766;53.194;5.532;2023-03-08T14:47:54;2.25;;;1.60;;
51556;SDS011;38766;53.194;5.532;2023-03-08T14:50:25;4.00;;;1.77;;
51556;SDS011;38766;53.194;5.532;2023-03-08T14:52:56;3.88;;;1.60;;
51556;SDS011;38766;53.194;5.532;2023-03-08T14:55:27;3.65;;;1.50;;
51556;SDS011;38766;53.194;5.532;2023-03-08T14:57:59;5.47;;;1.40;;
51556;SDS011;38766;53.194;5.532;2023-03-08T15:00:27;5.72;;;1.75;;
51556;SDS011;38766;53.194;5.532;2023-03-08T15:02:54;3.80;;;1.83;;
51556;SDS011;38766;53.194;5.532;2023-03-08T15:05:21;4.38;;;1.17;;
51556;SDS011;38766;53.194;5.532;2023-03-08T15:07:48;3.50;;;1.30;;
51556;SDS011;38766;53.194;5.532;2023-03-08T15:12:47;3.90;;;1.77;;
51556;SDS011;38766;53.194;5.532;2023-03-08T15:15:16;3.20;;;1.33;;
51556;SDS011;38766;53.194;5.532;2023-03-08T15:17:44;3.00;;;1.27;;
51556;SDS011;38766;53.194;5.532;2023-03-08T15:20:11;3.92;;;1.42;;
51556;SDS011;38766;53.194;5.532;2023-03-08T15:22:48;2.72;;;1.10;;
51556;SDS011;38766;53.194;5.532;2023-03-08T15:25:24;7.43;;;1.45;;
51556;SDS011;38766;53.194;5.532;2023-03-08T15:27:53;2.33;;;1.20;;
51556;SDS011;38766;53.194;5.532;2023-03-08T15:30:27;4.25;;;1.98;;
51556;SDS011;38766;53.194;5.532;2023-03-08T15:32:54;4.80;;;1.40;;
51556;SDS011;38766;53.194;5.532;2023-03-08T15:35:26;3.97;;;1.70;;
51556;SDS011;38766;53.194;5.532;2023-03-08T15:38:02;4.50;;;1.65;;
51556;SDS011;38766;53.194;5.532;2023-03-08T15:40:48;2.70;;;1.40;;
51556;SDS011;38766;53.194;5.532;2023-03-08T15:43:14;3.42;;;1.60;;
51556;SDS011;38766;53.194;5.532;2023-03-08T15:45:40;3.17;;;1.73;;
51556;SDS011;38766;53.194;5.532;2023-03-08T15:48:06;2.58;;;1.98;;
51556;SDS011;38766;53.194;5.532;2023-03-08T15:50:37;4.18;;;1.67;;
51556;SDS011;38766;53.194;5.532;2023-03-08T15:53:03;3.35;;;1.58;;
51556;SDS011;38766;53.194;5.532;2023-03-08T15:55:30;2.78;;;1.70;;
51556;SDS011;38766;53.194;5.532;2023-03-08T15:57:56;3.20;;;1.70;;
51556;SDS011;38766;53.194;5.532;2023-03-08T16:00:22;2.67;;;1.45;;
51556;SDS011;38766;53.194;5.532;2023-03-08T16:02:49;4.80;;;1.70;;
51556;SDS011;38766;53.194;5.532;2023-03-08T16:05:20;3.35;;;1.90;;
51556;SDS011;38766;53.194;5.532;2023-03-08T16:07:52;7.20;;;2.40;;
51556;SDS011;38766;53.194;5.532;2023-03-08T16:10:18;4.30;;;1.90;;
51556;SDS011;38766;53.194;5.532;2023-03-08T16:12:51;5.22;;;2.75;;
51556;SDS011;38766;53.194;5.532;2023-03-08T16:15:17;6.32;;;2.92;;
51556;SDS011;38766;53.194;5.532;2023-03-08T16:17:43;5.40;;;2.42;;
51556;SDS011;38766;53.194;5.532;2023-03-08T16:20:09;5.82;;;1.80;;
51556;SDS011;38766;53.194;5.532;2023-03-08T16:22:36;4.40;;;1.60;;
51556;SDS011;38766;53.194;5.532;2023-03-08T16:25:02;3.90;;;1.80;;
51556;SDS011;38766;53.194;5.532;2023-03-08T16:27:29;2.03;;;1.60;;
51556;SDS011;38766;53.194;5.532;2023-03-08T16:30:01;2.00;;;1.60;;